This is the latest recevied weather packets stored in our database for station/object W0AVQ. If no packets are shown the sender has not sent any weather packets the latest 1 day(s).
| Time | Temp. | Humidity | Pressure | Rain* | Wind** | Luminosity | Snow |
|---|---|---|---|---|---|---|---|
| 1778046296 | 8.89° C | 99% | 1012.2 hPa | 15.49 mm | 0.45 m/s, 33° | 0 W/m² | - |
| 1778045992 | 8.89° C | 99% | 1012.2 hPa | 10.67 mm | 0 m/s | 0 W/m² | - |
| 1778045690 | 8.89° C | 99% | 1011.9 hPa | 6.1 mm | 0 m/s | 0 W/m² | - |
| 1778045388 | 8.89° C | 99% | 1011.5 hPa | 3.05 mm | 0.45 m/s, 309° | 0 W/m² | - |
| 1778045087 | 8.89° C | 99% | 1011.4 hPa | 1.27 mm | 1.34 m/s, 58° | 0 W/m² | - |
| 1778044784 | 8.89° C | 99% | 1011.5 hPa | 3.05 mm | 0 m/s | 0 W/m² | - |
| 1778044480 | 8.89° C | 99% | 1011.3 hPa | 3.05 mm | 0.45 m/s, 98° | 0 W/m² | - |
| 1778044177 | 8.89° C | 99% | 1011.6 hPa | 3.05 mm | 0.45 m/s, 20° | 0 W/m² | - |
| 1778043875 | 8.89° C | 99% | 1011.6 hPa | 4.83 mm | 0 m/s | 0 W/m² | - |
| 1778043572 | 8.89° C | 99% | 1012 hPa | 8.89 mm | 0 m/s | 0 W/m² | - |
| 1778043269 | 9.44° C | 99% | 1012.1 hPa | 6.1 mm | 1.34 m/s, 322° | 0 W/m² | - |
| 1778042965 | 9.44° C | 99% | 1011.9 hPa | 0 mm | 0.89 m/s, 33° | 0 W/m² | - |
| 1778042664 | 9.44° C | 99% | 1011.4 hPa | 0 mm | 0 m/s | 0 W/m² | - |
| 1778042360 | 9.44° C | 99% | 1011.4 hPa | 0 mm | 0 m/s | 0 W/m² | - |
| 1778042058 | 9.44° C | 99% | 1011.4 hPa | 0 mm | 0.45 m/s, 350° | 0 W/m² | - |
| 1778041755 | 9.44° C | 99% | 1011.2 hPa | 0 mm | 0 m/s | 0 W/m² | - |
| 1778041455 | 9.44° C | 99% | 1011.2 hPa | 0 mm | 0 m/s | 0 W/m² | - |
| 1778041152 | 9.44° C | 99% | 1011.6 hPa | 0 mm | 1.79 m/s, 15° | 0 W/m² | - |
| 1778040850 | 9.44° C | 99% | 1011.5 hPa | 1.78 mm | 0 m/s | 0 W/m² | - |
| 1778040546 | 9.44° C | 99% | 1011.4 hPa | 1.78 mm | 0 m/s | 0 W/m² | - |
| 1778040244 | 9.44° C | 99% | 1011.9 hPa | 0 mm | 1.34 m/s, 293° | 0 W/m² | - |
| 1778039940 | 9.44° C | 99% | 1011.5 hPa | 1.27 mm | 0 m/s | 0 W/m² | - |
| 1778039638 | 9.44° C | 99% | 1011.5 hPa | 3.05 mm | 0 m/s | 0 W/m² | - |
| 1778039334 | 9.44° C | 99% | 1012 hPa | 3.05 mm | 1.34 m/s, 352° | 0 W/m² | - |
| 1778039031 | 9.44° C | 99% | 1011.7 hPa | 1.27 mm | 0 m/s | 0 W/m² | - |
* Rain latest hour (hover to see other rain measurements)
** Current wind speed in m/s (hover to see current wind gust speed)